createdAt,value
2018-08-25T00:02:12.299Z,411.80
2018-08-25T00:04:52.542Z,403.97
2018-08-25T00:07:34.302Z,385.87
2018-08-25T00:10:13.240Z,408.00
2018-08-25T00:12:54.194Z,372.00
2018-08-25T00:15:32.681Z,389.43
2018-08-25T00:18:13.422Z,370.47
2018-08-25T00:20:52.367Z,370.10
2018-08-25T00:23:31.161Z,410.13
2018-08-25T00:26:10.480Z,323.70
2018-08-25T00:28:49.361Z,362.00
2018-08-25T00:31:28.698Z,388.00
2018-08-25T00:34:08.538Z,313.47
2018-08-25T00:36:47.579Z,198.30
2018-08-25T00:39:26.197Z,238.00
2018-08-25T00:42:05.040Z,122.07
2018-08-25T00:44:44.540Z,86.80
2018-08-25T00:47:26.139Z,56.13
2018-08-25T00:50:06.781Z,96.07
2018-08-25T00:52:46.183Z,56.93
2018-08-25T00:55:26.220Z,53.10
2018-08-25T00:58:04.983Z,77.97
2018-08-25T01:00:43.480Z,129.83
2018-08-25T01:03:22.801Z,215.97
2018-08-25T01:06:01.600Z,347.97
2018-08-25T01:08:42.602Z,431.60
2018-08-25T01:11:22.142Z,466.57
2018-08-25T01:14:01.486Z,471.57
2018-08-25T01:16:40.503Z,409.77
2018-08-25T01:19:19.421Z,436.43
2018-08-25T01:21:57.982Z,393.73
2018-08-25T01:24:37.158Z,397.00
2018-08-25T01:27:15.942Z,445.33
2018-08-25T01:29:54.042Z,481.30
2018-08-25T01:32:32.381Z,364.80
2018-08-25T01:35:10.604Z,453.17
2018-08-25T01:37:50.618Z,332.67
2018-08-25T03:10:31.141Z,454.53
2018-08-25T03:13:10.260Z,403.43
2018-08-25T03:15:51.083Z,350.03
2018-08-25T03:18:29.806Z,420.00
2018-08-25T03:21:08.082Z,420.67
2018-08-25T03:23:51.081Z,464.23
2018-08-25T03:26:31.576Z,499.97
2018-08-25T03:29:11.297Z,456.30
2018-08-25T03:31:52.822Z,443.43
2018-08-25T03:34:32.202Z,470.03
2018-08-25T03:37:11.836Z,462.97
2018-08-25T03:39:50.121Z,465.53
2018-08-25T03:42:31.839Z,440.37
2018-08-25T03:45:13.942Z,404.00
2018-08-25T03:47:54.719Z,429.97
2018-08-25T03:50:33.918Z,390.47
2018-08-25T03:53:15.562Z,411.67
2018-08-25T03:55:56.041Z,438.17
2018-08-25T03:58:37.457Z,466.03
2018-08-25T04:01:15.999Z,510.70
2018-08-25T04:03:55.761Z,544.87
2018-08-25T04:06:36.805Z,534.90
2018-08-25T04:09:20.562Z,551.63
2018-08-25T04:12:02.783Z,584.87
2018-08-25T04:14:42.743Z,642.80
2018-08-25T04:17:22.001Z,559.17
2018-08-25T04:20:01.323Z,570.07
2018-08-25T04:22:40.618Z,602.57
2018-08-25T04:25:21.962Z,633.67
2018-08-25T04:28:05.513Z,515.70
2018-08-25T04:30:45.579Z,440.60
2018-08-25T04:33:26.260Z,416.13
2018-08-25T04:36:05.148Z,353.07
2018-08-25T04:38:46.440Z,292.60
2018-08-25T04:41:25.749Z,232.40
2018-08-25T04:44:04.358Z,291.13
2018-08-25T04:46:47.240Z,303.07
2018-08-25T04:49:28.786Z,294.57
2018-08-25T04:52:08.463Z,53.87
2018-08-25T04:54:48.599Z,208.70
2018-08-25T04:57:28.717Z,43.77
2018-08-25T05:00:07.862Z,81.83
2018-08-25T05:02:47.060Z,165.07
2018-08-25T05:05:26.224Z,79.90
2018-08-25T05:08:04.668Z,51.93
2018-08-25T05:10:42.583Z,106.60
2018-08-25T05:13:22.459Z,94.50
2018-08-25T05:16:04.005Z,122.00
2018-08-25T05:18:44.638Z,128.10
2018-08-25T05:21:24.764Z,398.97
2018-08-25T05:24:04.265Z,318.40
2018-08-25T05:26:44.025Z,573.03
2018-08-25T05:29:23.880Z,769.43
2018-08-25T05:32:04.999Z,712.63
2018-08-25T05:34:44.942Z,939.43
2018-08-25T05:37:25.560Z,999.90
2018-08-25T05:40:04.339Z,519.17
2018-08-25T05:42:44.680Z,999.90
2018-08-25T05:45:22.260Z,999.90
2018-08-25T05:48:01.643Z,979.97
2018-08-25T05:50:41.005Z,963.17
2018-08-25T05:53:19.959Z,999.90
2018-08-25T05:56:00.044Z,999.90
2018-08-25T05:58:39.298Z,999.90
2018-08-25T06:01:19.390Z,640.73
2018-08-25T06:03:59.661Z,999.90
2018-08-25T06:06:39.504Z,999.90
2018-08-25T06:09:22.519Z,999.90
2018-08-25T06:12:01.139Z,999.90
2018-08-25T06:14:41.240Z,999.90
2018-08-25T06:17:21.287Z,680.43
2018-08-25T06:19:59.586Z,999.90
2018-08-25T06:22:39.436Z,656.07
2018-08-25T06:25:18.859Z,793.90
2018-08-25T06:27:59.856Z,999.90
2018-08-25T06:30:39.158Z,999.90
2018-08-25T06:33:20.985Z,904.63
2018-08-25T06:36:00.646Z,481.40
2018-08-25T06:38:42.640Z,300.50
2018-08-25T06:41:23.098Z,561.60
2018-08-25T06:44:01.850Z,982.13
2018-08-25T06:46:43.695Z,651.27
2018-08-25T06:49:23.082Z,996.50
2018-08-25T06:52:02.621Z,872.37
2018-08-25T06:54:39.999Z,589.70
2018-08-25T06:57:21.162Z,375.60
2018-08-25T06:59:58.938Z,756.70
2018-08-25T07:02:36.854Z,999.90
2018-08-25T07:05:14.138Z,999.90
2018-08-25T07:07:55.024Z,938.23
2018-08-25T07:10:35.419Z,902.60
2018-08-25T07:13:15.880Z,669.37
2018-08-25T07:15:56.321Z,970.73
2018-08-25T07:18:34.139Z,999.90
2018-08-25T07:21:14.476Z,751.83
2018-08-25T07:23:54.583Z,999.90
2018-08-25T07:26:35.758Z,999.90
2018-08-25T08:55:50.200Z,999.90
2018-08-25T08:58:29.476Z,999.90
2018-08-25T09:01:09.325Z,999.90
2018-08-25T09:03:48.321Z,999.90
2018-08-25T09:06:28.088Z,999.90
2018-08-25T09:09:06.498Z,999.90
2018-08-25T09:11:47.995Z,999.90
2018-08-25T09:14:26.085Z,999.90
2018-08-25T09:17:04.825Z,999.90
2018-08-25T09:19:47.602Z,999.90
2018-08-25T09:22:26.824Z,999.90
2018-08-25T09:25:05.658Z,561.67
2018-08-25T09:27:44.899Z,800.40
2018-08-25T09:30:27.183Z,713.90
2018-08-25T09:33:09.139Z,999.90
2018-08-25T09:35:53.613Z,632.27
2018-08-25T09:38:39.405Z,999.90
2018-08-25T09:41:21.720Z,738.10
2018-08-25T09:44:01.146Z,503.30
2018-08-25T09:46:43.698Z,896.83
2018-08-25T09:49:26.286Z,850.90
2018-08-25T09:52:10.019Z,789.07
2018-08-25T09:54:49.600Z,695.43
2018-08-25T09:57:31.719Z,723.17
2018-08-25T10:00:11.202Z,647.67
2018-08-25T10:02:53.939Z,749.33
2018-08-25T10:05:35.479Z,999.90
2018-08-25T10:46:44.718Z,999.90
2018-08-25T12:07:19.333Z,895.53
2018-08-25T12:10:01.572Z,999.90
2018-08-25T12:12:44.153Z,999.90
2018-08-25T12:15:24.491Z,983.77
2018-08-25T12:18:04.855Z,935.37
2018-08-25T12:47:41.892Z,264.70
2018-08-25T12:50:20.171Z,333.13
2018-08-25T12:52:59.632Z,156.97
2018-08-25T12:55:39.333Z,153.87
2018-08-25T12:58:16.539Z,481.43
2018-08-25T13:01:00.815Z,539.50
2018-08-25T13:03:40.093Z,480.53
2018-08-25T13:06:19.869Z,376.90
2018-08-25T13:08:57.999Z,138.03
2018-08-25T13:11:38.613Z,524.87
2018-08-25T13:14:19.898Z,854.93
2018-08-25T13:17:04.794Z,397.33
2018-08-25T13:19:45.012Z,274.27
2018-08-25T13:22:26.577Z,903.97
2018-08-25T13:25:07.919Z,488.63
2018-08-25T13:27:51.034Z,999.90
2018-08-25T13:30:31.072Z,258.17
2018-08-25T13:33:09.252Z,395.77
2018-08-25T13:35:47.855Z,402.80
2018-08-25T13:38:26.798Z,357.97
2018-08-25T13:41:05.107Z,999.90
2018-08-25T13:43:44.004Z,243.40
2018-08-25T13:46:23.473Z,249.83
2018-08-25T13:49:06.356Z,991.60
2018-08-25T13:51:44.896Z,533.30
2018-08-25T13:54:21.959Z,889.83
2018-08-25T13:57:03.274Z,543.90
2018-08-25T13:59:42.373Z,261.27
2018-08-25T14:02:22.838Z,232.50
2018-08-25T14:05:04.738Z,279.27
2018-08-25T14:07:46.253Z,219.93
2018-08-25T14:10:28.670Z,293.47
2018-08-25T14:13:10.029Z,237.27
2018-08-25T14:15:50.358Z,384.40
2018-08-25T14:18:31.113Z,224.87
2018-08-25T14:21:13.014Z,513.87
2018-08-25T14:23:53.553Z,999.90
2018-08-25T14:26:36.459Z,508.97
2018-08-25T14:29:18.655Z,350.83
2018-08-25T14:31:56.952Z,320.27
2018-08-25T14:34:37.896Z,280.73
2018-08-25T14:37:16.874Z,276.23
2018-08-25T14:39:57.293Z,552.03
2018-08-25T14:42:36.582Z,408.07
2018-08-25T14:45:17.915Z,152.37
2018-08-25T14:47:54.773Z,367.57
2018-08-25T14:50:34.632Z,642.73
2018-08-25T14:53:14.823Z,556.37
2018-08-25T14:55:53.316Z,908.90
2018-08-25T14:58:30.908Z,431.03
2018-08-25T15:01:11.335Z,726.50
2018-08-25T15:03:48.375Z,307.50
2018-08-25T15:06:30.215Z,493.70
2018-08-25T15:09:15.191Z,999.90
2018-08-25T15:11:53.771Z,999.90
2018-08-25T15:14:34.001Z,837.93
2018-08-25T15:17:12.336Z,738.23
2018-08-25T15:19:54.435Z,884.40
2018-08-25T15:22:34.499Z,404.43
2018-08-25T15:25:15.052Z,371.57
2018-08-25T15:27:54.410Z,639.73
2018-08-25T15:30:32.019Z,736.57
2018-08-25T15:33:13.935Z,999.90
2018-08-25T15:35:56.537Z,999.90
2018-08-25T15:38:37.981Z,844.80
2018-08-25T15:41:16.994Z,999.90
2018-08-25T15:43:55.073Z,999.90
2018-08-25T15:46:35.351Z,999.90
2018-08-25T15:49:13.633Z,999.90
2018-08-25T15:51:56.461Z,999.90
2018-08-25T15:54:35.373Z,999.90
2018-08-25T15:57:15.394Z,640.53
2018-08-25T15:59:53.816Z,999.90
2018-08-25T16:02:32.136Z,999.90
2018-08-25T16:05:13.373Z,999.90
2018-08-25T16:07:52.661Z,999.90
2018-08-25T16:10:31.533Z,999.90
2018-08-25T16:13:13.332Z,999.90
2018-08-25T16:15:52.120Z,999.90
2018-08-25T16:18:30.710Z,999.90
2018-08-25T16:21:12.017Z,999.90
2018-08-25T16:23:50.810Z,647.50
2018-08-25T16:26:29.950Z,999.90
2018-08-25T16:29:07.715Z,975.63
2018-08-25T16:31:48.952Z,929.23
2018-08-25T16:34:27.193Z,983.23
2018-08-25T16:37:05.857Z,877.50
2018-08-25T16:39:45.291Z,999.73
2018-08-25T16:42:24.057Z,999.90
2018-08-25T18:11:32.505Z,765.83
2018-08-25T18:14:10.947Z,840.63
2018-08-25T18:16:51.907Z,837.90
2018-08-25T18:19:29.709Z,810.50
2018-08-25T18:22:09.469Z,808.80
2018-08-25T18:24:47.664Z,784.20
2018-08-25T18:27:28.984Z,740.40
2018-08-25T18:30:11.989Z,711.97
2018-08-25T18:32:53.168Z,529.33
2018-08-25T18:35:32.180Z,613.53
2018-08-25T18:38:10.886Z,436.10
2018-08-25T18:40:52.525Z,226.53
2018-08-25T18:43:40.785Z,464.67
2018-08-25T18:46:18.406Z,537.20
2018-08-25T18:48:56.664Z,530.17
2018-08-25T18:51:35.826Z,298.90
2018-08-25T18:54:16.057Z,445.97
2018-08-25T18:56:56.273Z,552.90
2018-08-25T18:59:35.877Z,535.20
2018-08-25T19:02:15.545Z,382.47
2018-08-25T19:04:53.830Z,438.67
2018-08-25T19:07:33.026Z,249.90
2018-08-25T19:10:15.170Z,253.57
2018-08-25T19:13:00.545Z,415.33
2018-08-25T19:15:38.026Z,439.33
2018-08-25T19:18:15.983Z,344.60
2018-08-25T19:20:59.569Z,346.40
2018-08-25T19:23:38.561Z,166.27
2018-08-25T19:26:17.049Z,121.03
2018-08-25T19:28:54.971Z,235.10
2018-08-25T19:31:34.911Z,96.33
2018-08-25T19:34:13.505Z,112.07
2018-08-25T19:36:53.726Z,103.90
2018-08-25T19:39:33.808Z,89.33
2018-08-25T19:42:11.958Z,100.73
2018-08-25T19:44:51.112Z,186.20
2018-08-25T19:47:30.767Z,236.13
2018-08-25T19:50:09.928Z,233.50
2018-08-25T19:52:49.166Z,367.53
2018-08-25T19:55:29.907Z,452.63
2018-08-25T19:58:10.527Z,496.17
2018-08-25T20:00:52.865Z,504.67
2018-08-25T20:03:31.548Z,479.87
2018-08-25T20:06:08.885Z,517.47
2018-08-25T20:08:50.215Z,429.60
2018-08-25T20:11:28.402Z,548.80
2018-08-25T20:14:05.662Z,700.40
2018-08-25T20:16:43.528Z,734.37
2018-08-25T20:19:25.332Z,791.83
2018-08-25T20:22:07.627Z,782.43
2018-08-25T20:24:48.828Z,764.33
2018-08-25T20:27:27.648Z,516.10
2018-08-25T20:30:08.597Z,412.90
2018-08-25T20:32:49.807Z,395.73
2018-08-25T20:35:29.945Z,504.60
2018-08-25T20:38:11.587Z,655.70
2018-08-25T20:40:53.035Z,785.37
2018-08-25T20:43:33.990Z,803.27
2018-08-25T20:46:15.682Z,848.70
2018-08-25T20:49:00.023Z,842.70
2018-08-25T20:51:48.443Z,811.60
2018-08-25T20:54:31.030Z,808.57
2018-08-25T20:57:09.725Z,881.20
2018-08-25T20:59:49.168Z,764.03
2018-08-25T21:02:29.187Z,830.33
2018-08-25T21:05:08.287Z,828.20
2018-08-25T21:07:50.050Z,728.77
2018-08-25T21:10:29.163Z,616.90
2018-08-25T21:13:12.227Z,656.30
2018-08-25T21:15:54.221Z,583.37
2018-08-25T21:18:32.302Z,511.10
2018-08-25T21:21:15.505Z,554.63
2018-08-25T21:23:59.268Z,473.27
2018-08-25T21:26:37.137Z,464.17
2018-08-25T21:29:18.130Z,327.80
2018-08-25T21:32:00.268Z,291.23
2018-08-25T21:34:42.427Z,244.83
2018-08-25T21:37:24.891Z,242.40
2018-08-25T21:40:06.005Z,206.77
2018-08-25T21:42:44.151Z,124.00
2018-08-25T21:45:24.592Z,164.13
2018-08-25T21:48:03.890Z,198.50
2018-08-25T21:50:48.442Z,208.13
2018-08-25T21:53:27.509Z,193.97
2018-08-25T21:56:05.222Z,265.93
2018-08-25T21:58:43.144Z,300.47
2018-08-25T23:25:00.847Z,179.67
2018-08-25T23:27:44.301Z,168.27
2018-08-25T23:30:24.491Z,127.20
2018-08-25T23:33:03.079Z,136.57
2018-08-25T23:35:42.604Z,143.10
2018-08-25T23:38:20.955Z,153.83
2018-08-25T23:41:03.181Z,154.00
2018-08-25T23:43:43.746Z,151.80
2018-08-25T23:46:24.420Z,184.40
2018-08-25T23:49:04.081Z,254.13
2018-08-25T23:51:43.601Z,339.53
2018-08-25T23:54:24.643Z,324.07
2018-08-25T23:57:05.082Z,331.27
2018-08-25T23:59:44.458Z,367.37
